Terminal Aerodrome Forecast
Issued by NWS

Home | Current Version | Previous Version | Text Only | Print | Product List | Glossary Off
Versions: 1 2 3 4 5 6 7 8 9 10 11 12 13 14 15 16 17 18 19 20 21 22

000
FTUS43 KFGF 191700
TAFBJI
TAF
KBJI 191728Z 1918/2018 27010KT P6SM SCT250
     FM192300 VRB04KT P6SM SCT250
     FM201400 18011KT P6SM VCTS SCT070CB SCT250=

USA.gov is the U.S. government's official web portal to all federal, state and local government web resources and services.